Oak Island, NC

12:41 AM EDT on April 28, 2015 (GMT -0400)
Oak Island - Marsh Hen | | Change Station
CLOSE
Current Station
Personal Weather Station
Location: Oak Island, NC
Elevation: 3 ft
Nearby Weather Stations

Elev 3 ft 33.91 °N, 78.14 °W | Updated 49 seconds ago

Clear
Clear
56.7 °F
Feels Like 56.7 °F
N
0.9
Wind Variable Wind from SSE
Gusts 6.0 mph

Today
High -- | Low -- °F
--% Chance of Precip.
Yesterday
High -- | Low -- °F
Precip. -- in
6:26 AM 7:53 PM
Waxing Gibbous, 70% visible
Pressure 29.90 in
Visibility 10.0 miles
Clouds Clear
Dew Point 44 °F
Humidity 62%
Rainfall 0.00 in
Snow Depth Not available.
UV 0 out of 12
Pollen 9.30 out of 12
Air Quality Not available.
Flu Activity Sporadic
METAR KSUT 280435Z AUTO 36005KT 10SM CLR 13/07 A2990 RMK AO2 T01320065

More Conditions Fewer Conditions

Pressure 29.90 in
Visibility 10.0 miles
Clouds Clear
Dew Point 44 °F
Humidity 62%
Rainfall 0.00 in
Snow Depth Not available.
UV 0 out of 12
Pollen 9.30 out of 12
Air Quality Not available.
Flu Activity Sporadic
METAR KSUT 280435Z AUTO 36005KT 10SM CLR 13/07 A2990 RMK AO2 T01320065

More Conditions Fewer Conditions

10-Day Weather Forecast

Almanac

Astronomy

Apr. 28, 2015 Rise Set
Actual Time
Civil Twilight
Nautical Twilight
Astronomical Twilight
Moon
Length of Visible Light
Length of Day
Tomorrow will be .
, % of the Moon is Illuminated

Today's Extremes

State Highs State Lows

Community

WunderPhotos

Upload Photos

1,817,582 photos uploaded!

WunderBlogs® & News

Nearby

Air Quality

  Air Quality AQ Index Pollutant
Not available.

Snow Depth

Station Depth Elevation

Earthquake Activity

City Distance Mag. Time & Date
Minimum magnitude displayed is 2.5.

Coastal Water Temperatures

Place Temperature

Stations

Nearby Weather Stations

Station Location Temp. Windchill Dew Point Humidity Wind Precip. Elev Updated Type